sensor_id;sensor_type;location;lat;lon;timestamp;temperature;humidity
30889;DHT22;51092;50.874;7.024;2023-04-15T00:00:56;7.00;92.10
30889;DHT22;51092;50.874;7.024;2023-04-15T00:01:59;6.90;92.30
30889;DHT22;51092;50.874;7.024;2023-04-15T00:03:01;6.90;92.30
30889;DHT22;51092;50.874;7.024;2023-04-15T00:04:04;6.90;92.50
30889;DHT22;51092;50.874;7.024;2023-04-15T00:05:05;6.80;92.80
30889;DHT22;51092;50.874;7.024;2023-04-15T00:06:08;6.80;93.00
30889;DHT22;51092;50.874;7.024;2023-04-15T00:07:10;6.80;93.10
30889;DHT22;51092;50.874;7.024;2023-04-15T00:08:12;6.80;93.20
30889;DHT22;51092;50.874;7.024;2023-04-15T00:09:13;6.70;93.40
30889;DHT22;51092;50.874;7.024;2023-04-15T00:10:17;6.70;93.60
30889;DHT22;51092;50.874;7.024;2023-04-15T00:11:19;6.70;93.90
30889;DHT22;51092;50.874;7.024;2023-04-15T00:12:21;6.60;94.40
30889;DHT22;51092;50.874;7.024;2023-04-15T00:13:23;6.50;95.20
30889;DHT22;51092;50.874;7.024;2023-04-15T00:14:26;6.40;95.90
30889;DHT22;51092;50.874;7.024;2023-04-15T00:15:27;6.30;96.60
30889;DHT22;51092;50.874;7.024;2023-04-15T00:16:29;6.30;96.80
30889;DHT22;51092;50.874;7.024;2023-04-15T00:17:31;6.30;97.10
30889;DHT22;51092;50.874;7.024;2023-04-15T00:18:34;6.20;96.90
30889;DHT22;51092;50.874;7.024;2023-04-15T00:19:36;6.30;96.70
30889;DHT22;51092;50.874;7.024;2023-04-15T00:20:38;6.30;96.60
30889;DHT22;51092;50.874;7.024;2023-04-15T00:21:40;6.30;96.50
30889;DHT22;51092;50.874;7.024;2023-04-15T00:22:42;6.30;96.50
30889;DHT22;51092;50.874;7.024;2023-04-15T00:23:44;6.20;96.40
30889;DHT22;51092;50.874;7.024;2023-04-15T00:24:49;6.30;96.40
30889;DHT22;51092;50.874;7.024;2023-04-15T00:25:52;6.30;96.30
30889;DHT22;51092;50.874;7.024;2023-04-15T00:26:55;6.30;96.20
30889;DHT22;51092;50.874;7.024;2023-04-15T00:27:56;6.30;96.10
30889;DHT22;51092;50.874;7.024;2023-04-15T00:28:59;6.30;96.00
30889;DHT22;51092;50.874;7.024;2023-04-15T00:30:00;6.20;96.10
30889;DHT22;51092;50.874;7.024;2023-04-15T00:31:04;6.30;95.90
30889;DHT22;51092;50.874;7.024;2023-04-15T00:32:06;6.30;95.90
30889;DHT22;51092;50.874;7.024;2023-04-15T00:33:09;6.20;96.00
30889;DHT22;51092;50.874;7.024;2023-04-15T00:34:10;6.30;96.10
30889;DHT22;51092;50.874;7.024;2023-04-15T00:35:13;6.30;96.30
30889;DHT22;51092;50.874;7.024;2023-04-15T00:36:15;6.30;96.20
30889;DHT22;51092;50.874;7.024;2023-04-15T00:37:17;6.30;96.10
30889;DHT22;51092;50.874;7.024;2023-04-15T00:38:19;6.30;96.10
30889;DHT22;51092;50.874;7.024;2023-04-15T00:39:21;6.30;96.30
30889;DHT22;51092;50.874;7.024;2023-04-15T00:40:24;6.30;96.30
30889;DHT22;51092;50.874;7.024;2023-04-15T00:41:27;6.40;96.30
30889;DHT22;51092;50.874;7.024;2023-04-15T00:42:30;6.50;96.10
30889;DHT22;51092;50.874;7.024;2023-04-15T00:43:31;6.50;95.70
30889;DHT22;51092;50.874;7.024;2023-04-15T00:44:34;6.40;95.70
30889;DHT22;51092;50.874;7.024;2023-04-15T00:45:35;6.40;95.60
30889;DHT22;51092;50.874;7.024;2023-04-15T00:46:38;6.40;95.90
30889;DHT22;51092;50.874;7.024;2023-04-15T00:47:40;6.40;96.10
30889;DHT22;51092;50.874;7.024;2023-04-15T00:48:44;6.40;96.30
30889;DHT22;51092;50.874;7.024;2023-04-15T00:49:46;6.50;96.00
30889;DHT22;51092;50.874;7.024;2023-04-15T00:50:49;6.50;96.10
30889;DHT22;51092;50.874;7.024;2023-04-15T00:51:50;6.60;95.80
30889;DHT22;51092;50.874;7.024;2023-04-15T00:52:53;6.60;95.50
30889;DHT22;51092;50.874;7.024;2023-04-15T00:53:54;6.50;95.50
30889;DHT22;51092;50.874;7.024;2023-04-15T00:54:57;6.50;95.60
30889;DHT22;51092;50.874;7.024;2023-04-15T00:55:58;6.50;95.70
30889;DHT22;51092;50.874;7.024;2023-04-15T00:57:04;6.60;95.40
30889;DHT22;51092;50.874;7.024;2023-04-15T00:58:05;6.60;95.40
30889;DHT22;51092;50.874;7.024;2023-04-15T00:59:08;6.60;95.40
30889;DHT22;51092;50.874;7.024;2023-04-15T01:00:11;6.60;95.20
30889;DHT22;51092;50.874;7.024;2023-04-15T01:01:13;6.60;95.20
30889;DHT22;51092;50.874;7.024;2023-04-15T01:02:15;6.60;95.10
30889;DHT22;51092;50.874;7.024;2023-04-15T01:03:18;6.70;94.90
30889;DHT22;51092;50.874;7.024;2023-04-15T01:04:19;6.60;94.80
30889;DHT22;51092;50.874;7.024;2023-04-15T01:05:22;6.60;94.90
30889;DHT22;51092;50.874;7.024;2023-04-15T01:06:23;6.60;94.80
30889;DHT22;51092;50.874;7.024;2023-04-15T01:07:27;6.60;94.80
30889;DHT22;51092;50.874;7.024;2023-04-15T01:08:29;6.60;94.90
30889;DHT22;51092;50.874;7.024;2023-04-15T01:09:32;6.50;94.90
30889;DHT22;51092;50.874;7.024;2023-04-15T01:10:33;6.50;95.00
30889;DHT22;51092;50.874;7.024;2023-04-15T01:11:36;6.50;94.90
30889;DHT22;51092;50.874;7.024;2023-04-15T01:12:39;6.60;94.90
30889;DHT22;51092;50.874;7.024;2023-04-15T01:13:42;6.60;94.70
30889;DHT22;51092;50.874;7.024;2023-04-15T01:14:43;6.60;94.70
30889;DHT22;51092;50.874;7.024;2023-04-15T01:15:46;6.60;94.50
30889;DHT22;51092;50.874;7.024;2023-04-15T01:16:48;6.60;94.50
30889;DHT22;51092;50.874;7.024;2023-04-15T01:17:51;6.60;94.40
30889;DHT22;51092;50.874;7.024;2023-04-15T01:18:52;6.60;94.50
30889;DHT22;51092;50.874;7.024;2023-04-15T01:19:55;6.50;94.50
30889;DHT22;51092;50.874;7.024;2023-04-15T01:20:57;6.50;94.60
30889;DHT22;51092;50.874;7.024;2023-04-15T01:22:01;6.50;95.00
30889;DHT22;51092;50.874;7.024;2023-04-15T01:23:03;6.60;95.00
30889;DHT22;51092;50.874;7.024;2023-04-15T01:24:09;6.60;94.90
30889;DHT22;51092;50.874;7.024;2023-04-15T01:25:13;6.60;94.80
30889;DHT22;51092;50.874;7.024;2023-04-15T01:26:19;6.60;95.00
30889;DHT22;51092;50.874;7.024;2023-04-15T01:27:21;6.60;94.90
30889;DHT22;51092;50.874;7.024;2023-04-15T01:28:24;6.60;95.00
30889;DHT22;51092;50.874;7.024;2023-04-15T01:29:26;6.60;95.00
30889;DHT22;51092;50.874;7.024;2023-04-15T01:30:28;6.60;94.70
30889;DHT22;51092;50.874;7.024;2023-04-15T01:31:33;6.60;94.70
30889;DHT22;51092;50.874;7.024;2023-04-15T01:32:37;6.60;94.60
30889;DHT22;51092;50.874;7.024;2023-04-15T01:33:39;6.50;94.70
30889;DHT22;51092;50.874;7.024;2023-04-15T01:34:42;6.50;94.60
30889;DHT22;51092;50.874;7.024;2023-04-15T01:35:43;6.50;94.60
30889;DHT22;51092;50.874;7.024;2023-04-15T01:36:46;6.40;94.80
30889;DHT22;51092;50.874;7.024;2023-04-15T01:37:47;6.40;95.10
30889;DHT22;51092;50.874;7.024;2023-04-15T01:38:50;6.40;95.00
30889;DHT22;51092;50.874;7.024;2023-04-15T01:39:51;6.40;94.90
30889;DHT22;51092;50.874;7.024;2023-04-15T01:40:53;6.40;95.00
30889;DHT22;51092;50.874;7.024;2023-04-15T01:41:56;6.40;95.00
30889;DHT22;51092;50.874;7.024;2023-04-15T01:42:59;6.20;95.10
30889;DHT22;51092;50.874;7.024;2023-04-15T01:44:00;6.20;95.20
30889;DHT22;51092;50.874;7.024;2023-04-15T01:45:03;6.20;95.10
30889;DHT22;51092;50.874;7.024;2023-04-15T01:46:05;6.10;95.30
30889;DHT22;51092;50.874;7.024;2023-04-15T01:47:08;6.20;95.50
30889;DHT22;51092;50.874;7.024;2023-04-15T01:48:09;6.20;95.10
30889;DHT22;51092;50.874;7.024;2023-04-15T01:49:12;6.30;95.30
30889;DHT22;51092;50.874;7.024;2023-04-15T01:50:14;6.20;95.10
30889;DHT22;51092;50.874;7.024;2023-04-15T01:51:16;6.20;95.10
30889;DHT22;51092;50.874;7.024;2023-04-15T01:52:18;6.20;95.10
30889;DHT22;51092;50.874;7.024;2023-04-15T01:53:20;6.10;95.20
30889;DHT22;51092;50.874;7.024;2023-04-15T01:54:21;6.10;95.40
30889;DHT22;51092;50.874;7.024;2023-04-15T01:55:23;6.00;95.50
30889;DHT22;51092;50.874;7.024;2023-04-15T01:56:24;6.00;95.60
30889;DHT22;51092;50.874;7.024;2023-04-15T01:57:27;6.00;95.70
30889;DHT22;51092;50.874;7.024;2023-04-15T01:58:29;6.00;95.60
30889;DHT22;51092;50.874;7.024;2023-04-15T01:59:32;6.00;95.60
30889;DHT22;51092;50.874;7.024;2023-04-15T02:00:33;6.00;95.70
30889;DHT22;51092;50.874;7.024;2023-04-15T02:01:36;6.00;95.60
30889;DHT22;51092;50.874;7.024;2023-04-15T02:02:38;6.00;95.70
30889;DHT22;51092;50.874;7.024;2023-04-15T02:03:40;6.00;95.70
30889;DHT22;51092;50.874;7.024;2023-04-15T02:04:42;5.90;95.80
30889;DHT22;51092;50.874;7.024;2023-04-15T02:05:44;6.00;95.80
30889;DHT22;51092;50.874;7.024;2023-04-15T02:06:46;5.90;95.80
30889;DHT22;51092;50.874;7.024;2023-04-15T02:07:49;6.00;95.70
30889;DHT22;51092;50.874;7.024;2023-04-15T02:08:50;6.00;95.80
30889;DHT22;51092;50.874;7.024;2023-04-15T02:09:53;6.00;95.60
30889;DHT22;51092;50.874;7.024;2023-04-15T02:10:55;6.00;95.70
30889;DHT22;51092;50.874;7.024;2023-04-15T02:11:58;6.00;95.70
30889;DHT22;51092;50.874;7.024;2023-04-15T02:13:02;6.00;95.60
30889;DHT22;51092;50.874;7.024;2023-04-15T02:14:04;6.10;95.40
30889;DHT22;51092;50.874;7.024;2023-04-15T02:15:07;6.10;95.30
30889;DHT22;51092;50.874;7.024;2023-04-15T02:16:16;6.20;95.30
30889;DHT22;51092;50.874;7.024;2023-04-15T02:17:18;6.20;95.00
30889;DHT22;51092;50.874;7.024;2023-04-15T02:18:20;6.20;95.00
30889;DHT22;51092;50.874;7.024;2023-04-15T02:19:22;6.30;94.90
30889;DHT22;51092;50.874;7.024;2023-04-15T02:20:25;6.20;94.70
30889;DHT22;51092;50.874;7.024;2023-04-15T02:21:26;6.20;94.70
30889;DHT22;51092;50.874;7.024;2023-04-15T02:22:29;6.20;94.70
30889;DHT22;51092;50.874;7.024;2023-04-15T02:23:30;6.20;94.70
30889;DHT22;51092;50.874;7.024;2023-04-15T02:24:33;6.30;94.70
30889;DHT22;51092;50.874;7.024;2023-04-15T02:25:34;6.20;94.60
30889;DHT22;51092;50.874;7.024;2023-04-15T02:26:37;6.20;94.60
30889;DHT22;51092;50.874;7.024;2023-04-15T02:27:38;6.20;94.60
30889;DHT22;51092;50.874;7.024;2023-04-15T02:28:42;6.20;94.70
30889;DHT22;51092;50.874;7.024;2023-04-15T02:29:44;6.20;94.70
30889;DHT22;51092;50.874;7.024;2023-04-15T02:30:47;6.20;94.70
30889;DHT22;51092;50.874;7.024;2023-04-15T02:31:50;6.20;94.90
30889;DHT22;51092;50.874;7.024;2023-04-15T02:32:53;6.20;94.80
30889;DHT22;51092;50.874;7.024;2023-04-15T02:33:54;6.10;94.90
30889;DHT22;51092;50.874;7.024;2023-04-15T02:35:01;6.10;95.00
30889;DHT22;51092;50.874;7.024;2023-04-15T02:36:04;6.10;95.00
30889;DHT22;51092;50.874;7.024;2023-04-15T02:37:06;6.00;95.10
30889;DHT22;51092;50.874;7.024;2023-04-15T02:38:08;6.10;95.10
30889;DHT22;51092;50.874;7.024;2023-04-15T02:39:11;6.10;95.10
30889;DHT22;51092;50.874;7.024;2023-04-15T02:40:14;6.00;95.20
30889;DHT22;51092;50.874;7.024;2023-04-15T02:41:17;6.00;95.40
30889;DHT22;51092;50.874;7.024;2023-04-15T02:42:18;6.10;95.40
30889;DHT22;51092;50.874;7.024;2023-04-15T02:43:21;6.10;95.30
30889;DHT22;51092;50.874;7.024;2023-04-15T02:44:24;6.10;95.20
30889;DHT22;51092;50.874;7.024;2023-04-15T02:45:27;6.00;95.30
30889;DHT22;51092;50.874;7.024;2023-04-15T02:46:29;6.00;95.50
30889;DHT22;51092;50.874;7.024;2023-04-15T02:47:31;6.00;95.60
30889;DHT22;51092;50.874;7.024;2023-04-15T02:48:33;6.00;95.80
30889;DHT22;51092;50.874;7.024;2023-04-15T02:49:36;6.00;95.70
30889;DHT22;51092;50.874;7.024;2023-04-15T02:50:37;5.90;95.80
30889;DHT22;51092;50.874;7.024;2023-04-15T02:51:40;5.90;95.80
30889;DHT22;51092;50.874;7.024;2023-04-15T02:52:42;5.90;96.00
30889;DHT22;51092;50.874;7.024;2023-04-15T02:53:45;5.90;95.80
30889;DHT22;51092;50.874;7.024;2023-04-15T02:54:46;5.80;96.10
30889;DHT22;51092;50.874;7.024;2023-04-15T02:55:49;5.80;96.10
30889;DHT22;51092;50.874;7.024;2023-04-15T02:56:50;5.80;96.10
30889;DHT22;51092;50.874;7.024;2023-04-15T02:57:55;5.80;96.20
30889;DHT22;51092;50.874;7.024;2023-04-15T02:58:58;5.80;96.30
30889;DHT22;51092;50.874;7.024;2023-04-15T03:00:02;5.70;96.30
30889;DHT22;51092;50.874;7.024;2023-04-15T03:01:04;5.70;96.50
30889;DHT22;51092;50.874;7.024;2023-04-15T03:02:07;5.70;96.50
30889;DHT22;51092;50.874;7.024;2023-04-15T03:03:09;5.60;96.60
30889;DHT22;51092;50.874;7.024;2023-04-15T03:04:11;5.60;96.70
30889;DHT22;51092;50.874;7.024;2023-04-15T03:05:13;5.60;96.80
30889;DHT22;51092;50.874;7.024;2023-04-15T03:06:16;5.60;96.80
30889;DHT22;51092;50.874;7.024;2023-04-15T03:07:18;5.60;96.70
30889;DHT22;51092;50.874;7.024;2023-04-15T03:08:20;5.60;97.00
30889;DHT22;51092;50.874;7.024;2023-04-15T03:09:22;5.60;97.20
30889;DHT22;51092;50.874;7.024;2023-04-15T03:10:24;5.60;97.40
30889;DHT22;51092;50.874;7.024;2023-04-15T03:11:26;5.50;97.30
30889;DHT22;51092;50.874;7.024;2023-04-15T03:12:28;5.50;97.50
30889;DHT22;51092;50.874;7.024;2023-04-15T03:13:30;5.50;97.40
30889;DHT22;51092;50.874;7.024;2023-04-15T03:14:33;5.40;97.50
30889;DHT22;51092;50.874;7.024;2023-04-15T03:15:36;5.40;97.80
30889;DHT22;51092;50.874;7.024;2023-04-15T03:16:38;5.60;98.00
30889;DHT22;51092;50.874;7.024;2023-04-15T03:17:39;5.50;97.90
30889;DHT22;51092;50.874;7.024;2023-04-15T03:18:42;5.50;97.70
30889;DHT22;51092;50.874;7.024;2023-04-15T03:19:43;5.60;98.00
30889;DHT22;51092;50.874;7.024;2023-04-15T03:20:46;5.60;97.90
30889;DHT22;51092;50.874;7.024;2023-04-15T03:21:47;5.60;97.80
30889;DHT22;51092;50.874;7.024;2023-04-15T03:22:50;5.50;97.40
30889;DHT22;51092;50.874;7.024;2023-04-15T03:23:51;5.60;98.00
30889;DHT22;51092;50.874;7.024;2023-04-15T03:24:54;5.60;97.80
30889;DHT22;51092;50.874;7.024;2023-04-15T03:25:56;5.60;97.30
30889;DHT22;51092;50.874;7.024;2023-04-15T03:27:00;5.50;97.20
30889;DHT22;51092;50.874;7.024;2023-04-15T03:28:02;5.50;97.20
30889;DHT22;51092;50.874;7.024;2023-04-15T03:29:05;5.50;97.40
30889;DHT22;51092;50.874;7.024;2023-04-15T03:30:07;5.40;97.50
30889;DHT22;51092;50.874;7.024;2023-04-15T03:31:11;5.50;97.60
30889;DHT22;51092;50.874;7.024;2023-04-15T03:32:13;5.50;97.50
30889;DHT22;51092;50.874;7.024;2023-04-15T03:33:15;5.50;97.80
30889;DHT22;51092;50.874;7.024;2023-04-15T03:34:17;5.40;97.50
30889;DHT22;51092;50.874;7.024;2023-04-15T03:35:19;5.50;97.50
30889;DHT22;51092;50.874;7.024;2023-04-15T03:36:21;5.50;97.40
30889;DHT22;51092;50.874;7.024;2023-04-15T03:37:23;5.40;97.60
30889;DHT22;51092;50.874;7.024;2023-04-15T03:38:25;5.40;97.60
30889;DHT22;51092;50.874;7.024;2023-04-15T03:39:27;5.40;97.80
30889;DHT22;51092;50.874;7.024;2023-04-15T03:40:29;5.40;97.80
30889;DHT22;51092;50.874;7.024;2023-04-15T03:41:31;5.40;97.90
30889;DHT22;51092;50.874;7.024;2023-04-15T03:42:33;5.40;98.00
30889;DHT22;51092;50.874;7.024;2023-04-15T03:43:35;5.30;98.00
30889;DHT22;51092;50.874;7.024;2023-04-15T03:44:37;5.20;98.10
30889;DHT22;51092;50.874;7.024;2023-04-15T03:45:39;5.20;98.40
30889;DHT22;51092;50.874;7.024;2023-04-15T03:46:42;5.30;98.40
30889;DHT22;51092;50.874;7.024;2023-04-15T03:47:44;5.30;98.70
30889;DHT22;51092;50.874;7.024;2023-04-15T03:48:46;5.20;98.80
30889;DHT22;51092;50.874;7.024;2023-04-15T03:49:49;5.30;98.70
30889;DHT22;51092;50.874;7.024;2023-04-15T03:50:50;5.20;98.80
30889;DHT22;51092;50.874;7.024;2023-04-15T03:51:53;5.30;98.70
30889;DHT22;51092;50.874;7.024;2023-04-15T03:52:55;5.30;98.90
30889;DHT22;51092;50.874;7.024;2023-04-15T03:53:57;5.30;98.80
30889;DHT22;51092;50.874;7.024;2023-04-15T03:54:58;5.20;98.90
30889;DHT22;51092;50.874;7.024;2023-04-15T03:56:01;5.20;98.80
30889;DHT22;51092;50.874;7.024;2023-04-15T03:57:03;5.20;99.00
30889;DHT22;51092;50.874;7.024;2023-04-15T03:58:06;5.20;99.00
30889;DHT22;51092;50.874;7.024;2023-04-15T03:59:07;5.20;99.20
30889;DHT22;51092;50.874;7.024;2023-04-15T04:00:10;5.20;99.00
30889;DHT22;51092;50.874;7.024;2023-04-15T04:01:12;5.20;99.10
30889;DHT22;51092;50.874;7.024;2023-04-15T04:02:15;5.20;99.00
30889;DHT22;51092;50.874;7.024;2023-04-15T04:03:17;5.20;99.00
30889;DHT22;51092;50.874;7.024;2023-04-15T04:04:19;5.10;98.90
30889;DHT22;51092;50.874;7.024;2023-04-15T04:05:21;5.20;98.90
30889;DHT22;51092;50.874;7.024;2023-04-15T04:06:24;5.10;98.90
30889;DHT22;51092;50.874;7.024;2023-04-15T04:07:25;5.10;98.90
30889;DHT22;51092;50.874;7.024;2023-04-15T04:08:27;5.10;99.00
30889;DHT22;51092;50.874;7.024;2023-04-15T04:09:29;5.10;99.00
30889;DHT22;51092;50.874;7.024;2023-04-15T04:10:31;5.10;99.40
30889;DHT22;51092;50.874;7.024;2023-04-15T04:11:33;5.20;99.20
30889;DHT22;51092;50.874;7.024;2023-04-15T04:12:35;5.20;98.90
30889;DHT22;51092;50.874;7.024;2023-04-15T04:13:37;5.30;98.70
30889;DHT22;51092;50.874;7.024;2023-04-15T04:14:39;5.30;98.50
30889;DHT22;51092;50.874;7.024;2023-04-15T04:15:41;5.20;98.30
30889;DHT22;51092;50.874;7.024;2023-04-15T04:16:43;5.10;98.50
30889;DHT22;51092;50.874;7.024;2023-04-15T04:17:46;5.10;98.30
30889;DHT22;51092;50.874;7.024;2023-04-15T04:18:49;5.20;98.50
30889;DHT22;51092;50.874;7.024;2023-04-15T04:19:50;5.20;98.30
30889;DHT22;51092;50.874;7.024;2023-04-15T04:20:53;5.20;98.30
30889;DHT22;51092;50.874;7.024;2023-04-15T04:21:55;5.20;98.50
30889;DHT22;51092;50.874;7.024;2023-04-15T04:22:57;5.20;98.30
30889;DHT22;51092;50.874;7.024;2023-04-15T04:23:59;5.20;98.30
30889;DHT22;51092;50.874;7.024;2023-04-15T04:25:01;5.10;98.30
30889;DHT22;51092;50.874;7.024;2023-04-15T04:26:03;5.10;98.40
30889;DHT22;51092;50.874;7.024;2023-04-15T04:27:19;5.10;98.40
30889;DHT22;51092;50.874;7.024;2023-04-15T04:28:21;5.10;98.70
30889;DHT22;51092;50.874;7.024;2023-04-15T04:29:23;5.10;98.50
30889;DHT22;51092;50.874;7.024;2023-04-15T04:30:25;5.10;98.40
30889;DHT22;51092;50.874;7.024;2023-04-15T04:31:27;5.00;98.70
30889;DHT22;51092;50.874;7.024;2023-04-15T04:32:29;5.10;98.60
30889;DHT22;51092;50.874;7.024;2023-04-15T04:33:33;5.10;98.80
30889;DHT22;51092;50.874;7.024;2023-04-15T04:34:34;5.20;99.00
30889;DHT22;51092;50.874;7.024;2023-04-15T04:35:37;5.20;99.00
30889;DHT22;51092;50.874;7.024;2023-04-15T04:36:39;5.20;99.40
30889;DHT22;51092;50.874;7.024;2023-04-15T04:37:41;5.20;99.20
30889;DHT22;51092;50.874;7.024;2023-04-15T04:38:43;5.20;99.20
30889;DHT22;51092;50.874;7.024;2023-04-15T04:39:45;5.20;99.20
30889;DHT22;51092;50.874;7.024;2023-04-15T04:40:47;5.20;99.30
30889;DHT22;51092;50.874;7.024;2023-04-15T04:41:49;5.20;99.50
30889;DHT22;51092;50.874;7.024;2023-04-15T04:42:52;5.30;99.20
30889;DHT22;51092;50.874;7.024;2023-04-15T04:43:54;5.20;99.00
30889;DHT22;51092;50.874;7.024;2023-04-15T04:44:56;5.20;99.00
30889;DHT22;51092;50.874;7.024;2023-04-15T04:45:58;5.20;98.80
30889;DHT22;51092;50.874;7.024;2023-04-15T04:47:00;5.20;98.80
30889;DHT22;51092;50.874;7.024;2023-04-15T04:48:02;5.20;98.60
30889;DHT22;51092;50.874;7.024;2023-04-15T04:49:08;5.10;98.60
30889;DHT22;51092;50.874;7.024;2023-04-15T04:50:11;5.10;98.50
30889;DHT22;51092;50.874;7.024;2023-04-15T04:51:12;5.10;98.40
30889;DHT22;51092;50.874;7.024;2023-04-15T04:52:15;5.10;98.40
30889;DHT22;51092;50.874;7.024;2023-04-15T04:53:17;5.10;98.60
30889;DHT22;51092;50.874;7.024;2023-04-15T04:54:19;5.00;98.90
30889;DHT22;51092;50.874;7.024;2023-04-15T04:55:21;5.00;98.90
30889;DHT22;51092;50.874;7.024;2023-04-15T04:56:23;5.00;99.10
30889;DHT22;51092;50.874;7.024;2023-04-15T04:57:25;5.00;99.10
30889;DHT22;51092;50.874;7.024;2023-04-15T04:58:27;5.00;98.90
30889;DHT22;51092;50.874;7.024;2023-04-15T04:59:29;5.00;99.10
30889;DHT22;51092;50.874;7.024;2023-04-15T05:00:31;4.90;99.50
30889;DHT22;51092;50.874;7.024;2023-04-15T05:01:33;4.90;99.90
30889;DHT22;51092;50.874;7.024;2023-04-15T05:02:36;4.80;99.90
30889;DHT22;51092;50.874;7.024;2023-04-15T05:03:38;4.80;99.90
30889;DHT22;51092;50.874;7.024;2023-04-15T05:04:42;4.80;99.90
30889;DHT22;51092;50.874;7.024;2023-04-15T05:05:43;4.80;99.90
30889;DHT22;51092;50.874;7.024;2023-04-15T05:06:46;4.80;99.80
30889;DHT22;51092;50.874;7.024;2023-04-15T05:07:48;4.80;99.90
30889;DHT22;51092;50.874;7.024;2023-04-15T05:08:50;4.70;99.90
30889;DHT22;51092;50.874;7.024;2023-04-15T05:09:52;4.80;99.90
30889;DHT22;51092;50.874;7.024;2023-04-15T05:10:55;4.70;99.90
30889;DHT22;51092;50.874;7.024;2023-04-15T05:11:56;4.70;99.80
30889;DHT22;51092;50.874;7.024;2023-04-15T05:12:59;4.70;99.80
30889;DHT22;51092;50.874;7.024;2023-04-15T05:14:02;4.70;99.80
30889;DHT22;51092;50.874;7.024;2023-04-15T05:15:04;4.80;99.80
30889;DHT22;51092;50.874;7.024;2023-04-15T05:16:07;4.80;99.60
30889;DHT22;51092;50.874;7.024;2023-04-15T05:17:09;4.80;99.70
30889;DHT22;51092;50.874;7.024;2023-04-15T05:18:12;4.80;99.50
30889;DHT22;51092;50.874;7.024;2023-04-15T05:19:14;4.80;99.60
30889;DHT22;51092;50.874;7.024;2023-04-15T05:20:17;4.80;99.60
30889;DHT22;51092;50.874;7.024;2023-04-15T05:21:19;4.80;99.50
30889;DHT22;51092;50.874;7.024;2023-04-15T05:22:21;4.80;99.60
30889;DHT22;51092;50.874;7.024;2023-04-15T05:23:23;4.80;99.90
30889;DHT22;51092;50.874;7.024;2023-04-15T05:24:26;4.90;99.90
30889;DHT22;51092;50.874;7.024;2023-04-15T05:25:27;4.90;99.50
30889;DHT22;51092;50.874;7.024;2023-04-15T05:26:30;4.90;99.50
30889;DHT22;51092;50.874;7.024;2023-04-15T05:27:32;4.90;99.70
30889;DHT22;51092;50.874;7.024;2023-04-15T05:28:35;5.00;99.80
30889;DHT22;51092;50.874;7.024;2023-04-15T05:29:36;5.00;99.40
30889;DHT22;51092;50.874;7.024;2023-04-15T05:30:39;5.10;99.30
30889;DHT22;51092;50.874;7.024;2023-04-15T05:31:42;5.10;99.40
30889;DHT22;51092;50.874;7.024;2023-04-15T05:32:43;5.20;99.10
30889;DHT22;51092;50.874;7.024;2023-04-15T05:33:46;5.20;99.10
30889;DHT22;51092;50.874;7.024;2023-04-15T05:34:47;5.30;98.90
30889;DHT22;51092;50.874;7.024;2023-04-15T05:35:51;5.30;98.70
30889;DHT22;51092;50.874;7.024;2023-04-15T05:36:54;5.40;98.20
30889;DHT22;51092;50.874;7.024;2023-04-15T05:37:56;5.40;98.10
30889;DHT22;51092;50.874;7.024;2023-04-15T05:38:58;5.50;97.90
30889;DHT22;51092;50.874;7.024;2023-04-15T05:39:59;5.60;97.80
30889;DHT22;51092;50.874;7.024;2023-04-15T05:41:02;5.60;97.70
30889;DHT22;51092;50.874;7.024;2023-04-15T05:42:04;5.60;97.60
30889;DHT22;51092;50.874;7.024;2023-04-15T05:43:07;5.60;97.70
30889;DHT22;51092;50.874;7.024;2023-04-15T05:44:08;5.70;97.50
30889;DHT22;51092;50.874;7.024;2023-04-15T05:45:11;5.80;97.20
30889;DHT22;51092;50.874;7.024;2023-04-15T05:46:12;5.80;97.10
30889;DHT22;51092;50.874;7.024;2023-04-15T05:47:15;5.80;96.80
30889;DHT22;51092;50.874;7.024;2023-04-15T05:48:16;5.80;97.30
30889;DHT22;51092;50.874;7.024;2023-04-15T05:49:19;5.60;98.30
30889;DHT22;51092;50.874;7.024;2023-04-15T05:50:20;5.50;98.80
30889;DHT22;51092;50.874;7.024;2023-04-15T05:51:24;5.40;99.20
30889;DHT22;51092;50.874;7.024;2023-04-15T05:52:26;5.40;99.70
30889;DHT22;51092;50.874;7.024;2023-04-15T05:53:29;5.40;99.80
30889;DHT22;51092;50.874;7.024;2023-04-15T05:54:30;5.40;99.90
30889;DHT22;51092;50.874;7.024;2023-04-15T05:55:32;5.40;99.90
30889;DHT22;51092;50.874;7.024;2023-04-15T05:56:34;5.50;99.90
30889;DHT22;51092;50.874;7.024;2023-04-15T05:57:37;5.60;99.90
30889;DHT22;51092;50.874;7.024;2023-04-15T05:58:39;5.70;99.50
30889;DHT22;51092;50.874;7.024;2023-04-15T05:59:42;5.80;99.30
30889;DHT22;51092;50.874;7.024;2023-04-15T06:00:45;5.70;99.30
30889;DHT22;51092;50.874;7.024;2023-04-15T06:01:47;5.80;99.20
30889;DHT22;51092;50.874;7.024;2023-04-15T06:02:49;5.70;99.50
30889;DHT22;51092;50.874;7.024;2023-04-15T06:03:51;5.80;99.60
30889;DHT22;51092;50.874;7.024;2023-04-15T06:04:53;5.90;99.90
30889;DHT22;51092;50.874;7.024;2023-04-15T06:05:55;6.10;99.80
30889;DHT22;51092;50.874;7.024;2023-04-15T06:06:58;6.20;99.30
30889;DHT22;51092;50.874;7.024;2023-04-15T06:08:01;6.40;98.20
30889;DHT22;51092;50.874;7.024;2023-04-15T06:09:03;6.50;97.30
30889;DHT22;51092;50.874;7.024;2023-04-15T06:10:06;6.70;96.40
30889;DHT22;51092;50.874;7.024;2023-04-15T06:11:08;6.80;95.70
30889;DHT22;51092;50.874;7.024;2023-04-15T06:12:11;6.90;95.40
30889;DHT22;51092;50.874;7.024;2023-04-15T06:13:13;7.00;94.90
30889;DHT22;51092;50.874;7.024;2023-04-15T06:14:17;7.10;94.80
30889;DHT22;51092;50.874;7.024;2023-04-15T06:15:18;7.20;94.60
30889;DHT22;51092;50.874;7.024;2023-04-15T06:16:21;7.30;94.20
30889;DHT22;51092;50.874;7.024;2023-04-15T06:17:23;7.30;93.80
30889;DHT22;51092;50.874;7.024;2023-04-15T06:18:25;7.40;93.60
30889;DHT22;51092;50.874;7.024;2023-04-15T06:19:28;7.50;93.30
30889;DHT22;51092;50.874;7.024;2023-04-15T06:20:29;7.50;93.10
30889;DHT22;51092;50.874;7.024;2023-04-15T06:21:32;7.50;92.90
30889;DHT22;51092;50.874;7.024;2023-04-15T06:22:36;7.60;92.90
30889;DHT22;51092;50.874;7.024;2023-04-15T06:23:38;7.60;92.80
30889;DHT22;51092;50.874;7.024;2023-04-15T06:24:41;7.70;92.80
30889;DHT22;51092;50.874;7.024;2023-04-15T06:25:43;7.90;92.40
30889;DHT22;51092;50.874;7.024;2023-04-15T06:26:46;7.90;92.20
30889;DHT22;51092;50.874;7.024;2023-04-15T06:27:48;8.00;92.20
30889;DHT22;51092;50.874;7.024;2023-04-15T06:28:50;8.00;92.20
30889;DHT22;51092;50.874;7.024;2023-04-15T06:29:52;8.20;92.00
30889;DHT22;51092;50.874;7.024;2023-04-15T06:30:54;8.30;91.80
30889;DHT22;51092;50.874;7.024;2023-04-15T06:31:56;8.40;91.60
30889;DHT22;51092;50.874;7.024;2023-04-15T06:32:58;8.50;91.10
30889;DHT22;51092;50.874;7.024;2023-04-15T06:34:00;8.50;90.80
30889;DHT22;51092;50.874;7.024;2023-04-15T06:35:02;8.30;91.10
30889;DHT22;51092;50.874;7.024;2023-04-15T06:36:06;8.20;91.40
30889;DHT22;51092;50.874;7.024;2023-04-15T06:37:07;8.20;91.60
30889;DHT22;51092;50.874;7.024;2023-04-15T06:38:12;8.30;91.50
30889;DHT22;51092;50.874;7.024;2023-04-15T06:39:15;8.30;91.40
30889;DHT22;51092;50.874;7.024;2023-04-15T06:40:17;8.40;91.20